Accueil
METAR-TAF:

METAR-TAF

Aéroports :

Aéroport de Rodez-Aveyron, Marcillac

Rodez, France

latitude: 44-24N, longitude: 002-29E, altitude: 581 m

Observation

Le bulletin a été fait il y a 18 minutes, à 01:30 UTC
Vent 2 kt de sud-est
Température 1°C
Humidité 80%
Pression 1028 hPa
Visibilité 10 km ou plus
pas de nuages en-dessous de 1500 mètres et pas de cumulonimbus.

METAR: LFCR 220130Z AUTO 13002KT CAVOK 01/M02 Q1028 NOSIG

Heure: 02:48 (01:48 UTC)

Prévision

Le bulletin a été fait il y a 2 heures et 48 minutes, à 23:00 UTC
Prévision valable du 22 à 00 UTC au 22 à 24 UTC
Vent 5 kt de est
Visibilité 10 km ou plus
pas de nuages en-dessous de 1500 mètres et pas de cumulonimbus.

TAF: LFCR 212300Z 2200/2224 09005KT CAVOK

Observations et prévisions météorologiques de plus de 4000 aéroports (messages METAR et TAF).

Les stations disponibles sont représentées par des disques jaunes et rouges sur la carte.

Passer la souris dessus pour voir le nom de la station.

Cliquer dessus pour voir les observations et prévisions météorologiques.

Pour changer de carte: cliquez sur les boutons verts avec une croix noire pour zoomer, sur le bouton vert avec un tiret pour effectuer un zoom arrière, ou sur les flèches vertes pour les cartes adjacentes.


METAR-TAF: